Time;durP1;ratioP1;P1;durP2;ratioP2;P2;SDS_P1;SDS_P2;PMS_P1;PMS_P2;Temp;Humidity;BMP_temperature;BMP_pressure;BME280_temperature;BME280_humidity;BME280_pressure;Samples;Min_cycle;Max_cycle;Signal;HPM_P1;HPM_P2
2022/03/25 00:01:04;;;;;;;31.40;19.23;;;11.70;99.90;;;;;;4975164;28;20339;-51
2022/03/25 00:03:31;;;;;;;31.23;18.73;;;11.70;41.40;;;;;;4974610;28;20205;-52
2022/03/25 00:05:58;;;;;;;34.53;19.73;;;11.80;1.00;;;;;;4972554;28;20238;-52
2022/03/25 00:08:26;;;;;;;35.10;20.00;;;11.70;1.00;;;;;;4975523;28;20778;-52
2022/03/25 00:10:53;;;;;;;36.00;20.03;;;11.60;1.00;;;;;;4972148;28;20299;-52
2022/03/25 00:13:19;;;;;;;35.33;19.70;;;11.80;1.00;;;;;;4971931;28;20253;-51
2022/03/25 00:15:46;;;;;;;35.80;19.60;;;11.60;1.00;;;;;;4975127;28;20313;-53
2022/03/25 00:18:13;;;;;;;30.53;20.93;;;11.60;1.00;;;;;;4971998;28;20212;-51
2022/03/25 00:20:40;;;;;;;30.90;19.90;;;11.60;1.00;;;;;;4972569;28;20679;-52
2022/03/25 00:23:06;;;;;;;28.20;19.53;;;11.40;21.80;;;;;;4976257;28;20237;-51
2022/03/25 00:25:34;;;;;;;34.83;19.53;;;11.40;1.00;;;;;;4973882;28;20299;-52
2022/03/25 00:28:01;;;;;;;28.70;18.47;;;11.40;54.30;;;;;;4973658;28;20676;-52
2022/03/25 00:30:29;;;;;;;33.97;19.20;;;11.30;1.60;;;;;;4973391;28;20226;-50
2022/03/25 00:32:56;;;;;;;29.07;18.33;;;11.40;1.00;;;;;;4974590;28;20244;-50
2022/03/25 00:35:23;;;;;;;27.03;17.40;;;11.30;1.00;;;;;;4973516;28;20243;-49
2022/03/25 00:37:50;;;;;;;33.50;19.50;;;11.20;74.80;;;;;;4974882;28;20352;-49
2022/03/25 00:40:16;;;;;;;34.23;18.90;;;11.20;1.00;;;;;;4971425;28;20202;-50
2022/03/25 00:42:43;;;;;;;30.90;19.10;;;11.20;31.30;;;;;;4973770;28;20233;-50
2022/03/25 00:45:10;;;;;;;30.87;18.77;;;11.20;1.00;;;;;;4973491;28;20569;-51
2022/03/25 00:47:37;;;;;;;32.93;18.37;;;11.20;18.50;;;;;;4970598;28;20963;-51
2022/03/25 00:50:04;;;;;;;30.13;18.97;;;11.20;1.00;;;;;;4971960;28;20288;-53
2022/03/25 00:52:31;;;;;;;31.40;19.67;;;11.20;1.00;;;;;;4973557;28;20207;-52
2022/03/25 00:54:58;;;;;;;28.63;18.10;;;11.10;1.00;;;;;;4976594;28;20660;-49
2022/03/25 00:57:25;;;;;;;33.27;19.70;;;11.00;99.90;;;;;;4976090;28;20680;-51
2022/03/25 00:59:52;;;;;;;31.67;19.67;;;10.90;44.70;;;;;;4973013;28;20848;-50
2022/03/25 01:02:19;;;;;;;32.83;18.60;;;10.80;99.90;;;;;;4972824;28;20343;-52
2022/03/25 01:04:46;;;;;;;29.80;18.87;;;10.80;99.90;;;;;;4937772;28;1091387;-52
2022/03/25 01:07:12;;;;;;;29.67;18.63;;;10.70;99.90;;;;;;4973461;28;20327;-50
2022/03/25 01:09:39;;;;;;;34.13;19.20;;;10.80;1.00;;;;;;4975999;28;20286;-51
2022/03/25 01:12:06;;;;;;;31.07;19.03;;;10.90;1.00;;;;;;4975734;28;20234;-51
2022/03/25 01:14:33;;;;;;;31.10;18.90;;;10.80;1.00;;;;;;4974903;28;20320;-52
2022/03/25 01:17:00;;;;;;;27.20;17.87;;;10.80;1.00;;;;;;4970384;28;20265;-51
2022/03/25 01:19:27;;;;;;;27.37;18.47;;;10.80;1.00;;;;;;4971959;28;20543;-51
2022/03/25 01:21:56;;;;;;;28.00;17.43;;;10.70;1.00;;;;;;4977946;28;20570;-52
2022/03/25 01:24:23;;;;;;;28.50;18.30;;;10.60;1.00;;;;;;4974947;28;20278;-51
2022/03/25 01:26:50;;;;;;;31.53;19.97;;;10.60;1.00;;;;;;4976258;28;20592;-51
2022/03/25 01:29:17;;;;;;;29.37;18.23;;;10.50;1.00;;;;;;4974157;28;20207;-51
2022/03/25 01:31:44;;;;;;;29.37;18.87;;;10.40;1.00;;;;;;4970005;28;20309;-51
2022/03/25 01:34:11;;;;;;;30.00;18.53;;;10.30;1.00;;;;;;4975410;28;20237;-50
2022/03/25 01:36:38;;;;;;;30.57;19.00;;;10.40;1.00;;;;;;4974402;28;20194;-51
2022/03/25 01:39:05;;;;;;;32.40;19.57;;;10.40;1.00;;;;;;4972748;28;20649;-52
2022/03/25 01:41:32;;;;;;;28.67;18.23;;;10.40;1.00;;;;;;4973371;28;20616;-51
2022/03/25 01:44:01;;;;;;;28.93;17.33;;;10.20;1.00;;;;;;4974530;28;20376;-51
2022/03/25 01:46:27;;;;;;;32.17;19.60;;;10.00;1.00;;;;;;4977318;28;20215;-52
2022/03/25 01:48:55;;;;;;;33.73;17.40;;;9.90;1.00;;;;;;4978757;28;20643;-50
2022/03/25 01:51:32;;;;;;;26.63;17.23;;;9.90;1.00;;;;;;4977387;28;20204;-51
2022/03/25 01:54:18;;;;;;;31.17;17.73;;;10.00;1.00;;;;;;4974639;28;20232;-52
2022/03/25 01:56:48;;;;;;;29.93;16.70;;;10.00;1.00;;;;;;4978088;28;20663;-51
2022/03/25 01:59:16;;;;;;;30.67;16.93;;;10.00;1.00;;;;;;4977582;28;20334;-52
2022/03/25 02:01:43;;;;;;;28.87;17.33;;;9.90;1.00;;;;;;4970666;28;20203;-50
2022/03/25 02:04:10;;;;;;;26.83;17.00;;;9.80;1.00;;;;;;4971392;28;20199;-50
2022/03/25 02:06:37;;;;;;;30.20;17.40;;;9.80;1.00;;;;;;4972071;28;20634;-51
2022/03/25 02:09:04;;;;;;;30.13;17.70;;;9.80;1.00;;;;;;4971397;28;20288;-50
2022/03/25 02:11:34;;;;;;;29.20;17.37;;;9.80;1.00;;;;;;4970568;28;20322;-52
2022/03/25 02:14:02;;;;;;;28.83;17.23;;;9.80;1.00;;;;;;4978029;28;20290;-51
2022/03/25 02:16:49;;;;;;;28.93;17.73;;;9.90;1.00;;;;;;4974959;28;20228;-50
2022/03/25 02:19:20;;;;;;;29.63;18.37;;;9.80;1.00;;;;;;4972608;28;20208;-52
2022/03/25 02:21:49;;;;;;;26.47;17.80;;;9.90;1.00;;;;;;4973366;28;20694;-50
2022/03/25 02:24:16;;;;;;;34.10;19.10;;;9.80;1.00;;;;;;4974224;28;20303;-51
2022/03/25 02:26:47;;;;;;;33.90;17.87;;;9.80;1.00;;;;;;4977193;28;20253;-53
2022/03/25 02:29:16;;;;;;;30.53;18.63;;;9.80;1.00;;;;;;4972816;28;20269;-50
2022/03/25 02:31:43;;;;;;;33.97;17.67;;;9.90;1.00;;;;;;4973474;28;20229;-51
2022/03/25 02:34:11;;;;;;;29.93;17.50;;;9.80;1.00;;;;;;4972255;28;20207;-51
2022/03/25 02:36:39;;;;;;;29.17;17.80;;;9.70;1.00;;;;;;4976360;28;20220;-51
2022/03/25 02:39:07;;;;;;;29.47;18.53;;;9.60;1.00;;;;;;4974428;28;20232;-50
2022/03/25 02:41:34;;;;;;;31.10;19.00;;;9.70;1.00;;;;;;4974043;28;20304;-49
2022/03/25 02:44:01;;;;;;;30.33;18.17;;;9.70;1.00;;;;;;4971756;28;20634;-51
2022/03/25 02:46:28;;;;;;;28.57;17.97;;;9.60;1.00;;;;;;4972988;28;20299;-50
2022/03/25 02:48:55;;;;;;;31.10;18.40;;;9.40;1.00;;;;;;4971284;28;20220;-51
2022/03/25 02:51:22;;;;;;;31.30;19.00;;;9.40;1.00;;;;;;4973950;28;20306;-51
2022/03/25 02:53:49;;;;;;;27.67;18.20;;;9.40;1.00;;;;;;4973055;28;20247;-49
2022/03/25 02:56:17;;;;;;;28.57;17.93;;;9.40;1.00;;;;;;4974496;28;20301;-52
2022/03/25 02:58:45;;;;;;;32.80;18.83;;;9.30;1.00;;;;;;4974579;28;20245;-50
2022/03/25 03:01:13;;;;;;;30.80;18.97;;;9.30;1.00;;;;;;4971094;28;20270;-52
2022/03/25 03:03:40;;;;;;;30.80;19.07;;;9.40;1.00;;;;;;4974384;28;20201;-53
2022/03/25 03:06:07;;;;;;;32.80;19.23;;;9.40;1.00;;;;;;4972516;28;20383;-52
2022/03/25 03:08:37;;;;;;;33.93;19.80;;;9.20;1.00;;;;;;4974742;28;20636;-52
2022/03/25 03:11:04;;;;;;;32.67;20.23;;;9.40;1.00;;;;;;4972409;28;21192;-51
2022/03/25 03:13:31;;;;;;;30.97;19.73;;;9.40;1.00;;;;;;4976458;28;20206;-51
2022/03/25 03:15:58;;;;;;;32.37;19.00;;;9.40;1.00;;;;;;4969474;28;20583;-52
2022/03/25 03:18:25;;;;;;;31.80;19.47;;;9.30;1.00;;;;;;4970756;28;20673;-52
2022/03/25 03:20:52;;;;;;;36.43;20.60;;;9.30;1.00;;;;;;4972540;28;20210;-52
2022/03/25 03:23:19;;;;;;;34.80;18.60;;;9.30;1.00;;;;;;4975012;28;20242;-50
2022/03/25 03:25:46;;;;;;;34.10;20.03;;;9.30;30.60;;;;;;4974276;28;20308;-51
2022/03/25 03:28:13;;;;;;;30.67;19.37;;;9.30;60.00;;;;;;4972270;28;20238;-52
2022/03/25 03:30:40;;;;;;;35.10;20.40;;;9.10;99.90;;;;;;4970894;28;20212;-53
2022/03/25 03:33:08;;;;;;;33.70;19.87;;;8.90;99.90;;;;;;4974235;28;21034;-52
2022/03/25 03:35:35;;;;;;;37.53;21.97;;;8.90;99.90;;;;;;4972066;28;20227;-53
2022/03/25 03:38:03;;;;;;;35.10;20.57;;;9.00;99.90;;;;;;4972101;28;20340;-51
2022/03/25 03:40:31;;;;;;;31.83;19.13;;;9.00;99.90;;;;;;4974336;28;20206;-51
2022/03/25 03:42:58;;;;;;;35.83;20.93;;;8.80;99.90;;;;;;4976662;28;20293;-53
2022/03/25 03:45:24;;;;;;;35.70;20.93;;;8.90;99.90;;;;;;4977998;28;20655;-53
2022/03/25 03:47:52;;;;;;;34.30;21.07;;;8.90;99.90;;;;;;4973971;28;20303;-50
2022/03/25 03:50:19;;;;;;;35.73;22.47;;;8.90;99.90;;;;;;4974236;28;20649;-51
2022/03/25 03:52:45;;;;;;;37.77;21.77;;;8.70;1.00;;;;;;4977287;28;20778;-51
2022/03/25 03:55:13;;;;;;;34.50;21.17;;;8.70;1.00;;;;;;4980110;28;20254;-50
2022/03/25 03:57:40;;;;;;;38.13;22.03;;;8.90;1.00;;;;;;4974819;28;20237;-49
2022/03/25 04:00:10;;;;;;;38.03;22.30;;;8.80;1.00;;;;;;4976720;28;20206;-50
2022/03/25 04:02:38;;;;;;;36.57;23.17;;;8.80;1.00;;;;;;4974256;28;20233;-52
2022/03/25 04:05:06;;;;;;;33.70;21.27;;;8.70;1.00;;;;;;4977066;28;21050;-52
2022/03/25 04:07:42;;;;;;;35.10;21.60;;;8.80;1.00;;;;;;4974971;28;20224;-51
2022/03/25 04:10:09;;;;;;;35.53;22.10;;;8.70;1.00;;;;;;4975176;28;20204;-51
2022/03/25 04:12:36;;;;;;;40.40;22.93;;;8.70;1.00;;;;;;4976536;28;20306;-51
2022/03/25 04:15:05;;;;;;;39.33;22.37;;;8.70;1.00;;;;;;4976534;28;20747;-57
2022/03/25 04:17:32;;;;;;;35.93;22.80;;;8.60;1.00;;;;;;4974203;28;20545;-52
2022/03/25 04:19:58;;;;;;;43.40;22.60;;;8.50;1.00;;;;;;4975694;28;20337;-52
2022/03/25 04:22:25;;;;;;;41.60;22.33;;;8.40;99.90;;;;;;4975065;28;20644;-50
2022/03/25 04:24:54;;;;;;;39.80;22.20;;;8.50;99.90;;;;;;4976759;28;20735;-52
2022/03/25 04:27:21;;;;;;;38.70;22.87;;;8.30;99.90;;;;;;4974582;28;20287;-50
2022/03/25 04:29:48;;;;;;;39.40;22.43;;;8.20;1.00;;;;;;4974697;28;20296;-52
2022/03/25 04:32:16;;;;;;;40.27;23.40;;;8.30;1.00;;;;;;4979098;28;20649;-50
2022/03/25 04:34:43;;;;;;;37.73;22.63;;;8.20;1.00;;;;;;4972689;28;20942;-52
2022/03/25 04:37:10;;;;;;;37.23;22.87;;;8.30;1.00;;;;;;4975053;28;20326;-50
2022/03/25 04:39:37;;;;;;;38.73;23.13;;;8.30;1.00;;;;;;4974063;28;20203;-53
2022/03/25 04:42:04;;;;;;;39.23;24.00;;;8.30;1.00;;;;;;4977112;28;20999;-54
2022/03/25 04:44:31;;;;;;;39.23;24.93;;;8.20;1.00;;;;;;4977284;28;20286;-53
2022/03/25 04:46:58;;;;;;;46.17;26.50;;;8.10;1.00;;;;;;4974325;28;20260;-53
2022/03/25 04:49:25;;;;;;;39.23;23.90;;;8.20;1.00;;;;;;4970229;28;20313;-54
2022/03/25 04:51:51;;;;;;;45.70;25.53;;;8.30;1.00;;;;;;4970712;28;20295;-53
2022/03/25 04:54:36;;;;;;;43.47;24.27;;;8.20;1.00;;;;;;4973782;28;20262;-52
2022/03/25 04:57:04;;;;;;;45.03;25.63;;;8.20;1.00;;;;;;4973619;28;20218;-52
2022/03/25 04:59:31;;;;;;;45.50;25.17;;;8.30;1.00;;;;;;4974750;28;20237;-52
2022/03/25 05:01:58;;;;;;;43.97;25.07;;;8.20;1.00;;;;;;4983002;28;20221;-52
2022/03/25 05:04:25;;;;;;;43.33;26.73;;;8.30;72.10;;;;;;4977179;28;20248;-51
2022/03/25 05:06:51;;;;;;;44.77;25.33;;;8.30;1.00;;;;;;4977083;28;20614;-52
2022/03/25 05:09:18;;;;;;;43.27;25.07;;;8.20;1.00;;;;;;4976726;28;20293;-55
2022/03/25 05:11:45;;;;;;;51.00;27.07;;;8.10;99.90;;;;;;4977448;28;20252;-52
2022/03/25 05:14:14;;;;;;;46.93;26.43;;;8.20;99.90;;;;;;4976665;28;20294;-53
2022/03/25 05:16:44;;;;;;;45.30;26.97;;;8.10;99.90;;;;;;4976746;28;20281;-51
2022/03/25 05:19:11;;;;;;;46.47;26.53;;;8.10;99.90;;;;;;4974644;28;20635;-52
2022/03/25 05:21:38;;;;;;;49.33;27.73;;;8.00;1.00;;;;;;4976513;28;20368;-54
2022/03/25 05:24:05;;;;;;;43.83;25.97;;;8.10;99.90;;;;;;4976987;28;20303;-54
2022/03/25 05:26:32;;;;;;;47.43;28.67;;;8.10;99.90;;;;;;4977411;28;20218;-52
2022/03/25 05:28:58;;;;;;;47.97;27.07;;;8.00;1.00;;;;;;4974516;28;20279;-52
2022/03/25 05:31:26;;;;;;;50.63;29.20;;;8.00;1.00;;;;;;4976103;28;20656;-51
2022/03/25 05:33:53;;;;;;;46.60;28.60;;;7.90;1.00;;;;;;4976587;28;20211;-52
2022/03/25 05:36:20;;;;;;;49.57;28.87;;;7.90;1.00;;;;;;4975275;28;20308;-52
2022/03/25 05:38:47;;;;;;;50.00;28.53;;;7.70;1.00;;;;;;4976975;28;20204;-52
2022/03/25 05:41:14;;;;;;;52.67;29.93;;;7.70;5.10;;;;;;4976183;28;20291;-50
2022/03/25 05:43:41;;;;;;;50.17;29.50;;;7.80;1.00;;;;;;4975693;28;20202;-51
2022/03/25 05:46:08;;;;;;;50.37;29.33;;;7.70;99.90;;;;;;4975953;28;20215;-54
2022/03/25 05:48:35;;;;;;;49.97;29.10;;;7.90;99.90;;;;;;4972779;28;20580;-53
2022/03/25 05:51:02;;;;;;;48.13;28.77;;;7.90;99.90;;;;;;4975052;28;20198;-51
2022/03/25 05:53:29;;;;;;;49.00;28.83;;;7.70;99.90;;;;;;4976173;28;20214;-50
2022/03/25 05:55:59;;;;;;;47.70;29.40;;;7.80;1.00;;;;;;4974976;28;20324;-52
2022/03/25 05:58:26;;;;;;;57.60;32.27;;;7.90;99.90;;;;;;4972802;28;20612;-51
2022/03/25 06:00:53;;;;;;;50.33;29.73;;;8.00;99.90;;;;;;4976440;28;20314;-52
2022/03/25 06:03:20;;;;;;;55.77;32.00;;;8.00;1.00;;;;;;4971101;28;20204;-54
2022/03/25 06:05:47;;;;;;;53.13;30.90;;;7.90;99.90;;;;;;4971262;28;20289;-52
2022/03/25 06:08:14;;;;;;;56.10;30.87;;;7.80;1.00;;;;;;4973386;28;20253;-55
2022/03/25 06:10:41;;;;;;;54.50;31.53;;;7.90;1.00;;;;;;4974739;28;20350;-55
2022/03/25 06:13:08;;;;;;;53.50;31.83;;;7.70;1.00;;;;;;4972490;28;20234;-51
2022/03/25 06:15:35;;;;;;;54.07;31.80;;;7.70;1.00;;;;;;4974058;28;20629;-53
2022/03/25 06:18:02;;;;;;;52.70;33.33;;;7.60;1.00;;;;;;4972210;28;20732;-53
2022/03/25 06:20:29;;;;;;;61.73;33.97;;;7.70;1.00;;;;;;4971119;28;20619;-52
2022/03/25 06:22:57;;;;;;;55.83;33.23;;;7.90;99.90;;;;;;4971803;28;22646;-51
2022/03/25 06:25:24;;;;;;;58.50;34.00;;;7.90;1.00;;;;;;4976012;28;20232;-53
2022/03/25 06:27:57;;;;;;;55.10;33.47;;;7.80;99.90;;;;;;4973219;28;20310;-52
2022/03/25 06:30:27;;;;;;;61.00;33.33;;;7.70;1.00;;;;;;4970746;28;20305;-52
2022/03/25 06:32:55;;;;;;;60.13;34.40;;;7.80;99.90;;;;;;4972277;28;20214;-53
2022/03/25 06:35:22;;;;;;;59.80;33.67;;;7.90;99.90;;;;;;4973247;28;20729;-51
2022/03/25 06:37:49;;;;;;;60.40;34.00;;;8.00;99.90;;;;;;4973398;28;20227;-54
2022/03/25 06:40:16;;;;;;;54.60;34.23;;;8.00;99.90;;;;;;4973751;28;20284;-53
2022/03/25 06:42:44;;;;;;;59.27;36.13;;;8.10;99.90;;;;;;4977269;28;20294;-55
2022/03/25 06:45:12;;;;;;;59.70;34.73;;;8.20;1.00;;;;;;4976319;28;20851;-52
2022/03/25 06:47:40;;;;;;;63.80;35.53;;;8.30;1.00;;;;;;4972523;28;20630;-51
2022/03/25 06:50:08;;;;;;;63.37;36.23;;;8.40;1.00;;;;;;4969995;28;20238;-53
2022/03/25 06:52:35;;;;;;;58.17;35.13;;;8.30;99.90;;;;;;4972398;28;20217;-52
2022/03/25 06:55:03;;;;;;;60.63;34.50;;;8.60;1.00;;;;;;4975546;28;20394;-53
2022/03/25 06:57:30;;;;;;;58.30;34.60;;;8.40;99.90;;;;;;4973166;28;20317;-52
2022/03/25 06:59:57;;;;;;;64.17;34.77;;;8.40;1.00;;;;;;4972581;28;20656;-52
2022/03/25 07:02:25;;;;;;;59.30;34.90;;;8.70;1.00;;;;;;4968210;28;20202;-52
2022/03/25 07:04:52;;;;;;;61.40;37.57;;;8.70;1.00;;;;;;4973040;28;20284;-53
2022/03/25 07:07:26;;;;;;;56.80;34.40;;;8.90;1.00;;;;;;4968865;28;20451;-53
2022/03/25 07:09:54;;;;;;;60.17;37.40;;;9.00;25.70;;;;;;4976757;28;20235;-50
2022/03/25 07:12:21;;;;;;;53.00;33.27;;;9.10;1.00;;;;;;4975986;28;20321;-50
2022/03/25 07:14:48;;;;;;;59.83;35.27;;;9.30;1.00;;;;;;4978163;28;20463;-51
2022/03/25 07:17:14;;;;;;;57.63;34.87;;;9.40;1.00;;;;;;4980967;28;20219;-54
2022/03/25 07:19:41;;;;;;;56.77;34.77;;;9.40;1.00;;;;;;4977988;28;20342;-51
2022/03/25 07:22:08;;;;;;;58.13;35.70;;;9.60;1.00;;;;;;4979012;28;20258;-51
2022/03/25 07:24:35;;;;;;;59.10;35.70;;;9.90;99.90;;;;;;4975629;28;20234;-51
2022/03/25 07:27:02;;;;;;;52.87;32.90;;;9.90;1.00;;;;;;4981673;28;20296;-51
2022/03/25 07:29:29;;;;;;;59.17;35.17;;;10.00;1.00;;;;;;4977203;28;20214;-53
2022/03/25 07:31:56;;;;;;;58.23;34.53;;;10.20;1.00;;;;;;4974259;28;20589;-52
2022/03/25 07:34:23;;;;;;;55.37;34.70;;;10.50;1.00;;;;;;4972766;28;20689;-51
2022/03/25 07:36:49;;;;;;;52.57;33.43;;;10.30;1.00;;;;;;4977352;28;20228;-51
2022/03/25 07:39:16;;;;;;;54.93;34.47;;;10.40;1.00;;;;;;4979268;28;20323;-49
2022/03/25 07:41:43;;;;;;;57.70;34.77;;;10.50;1.00;;;;;;4976276;28;20205;-51
2022/03/25 07:44:10;;;;;;;55.43;34.27;;;10.50;99.90;;;;;;4971704;28;20587;-52
2022/03/25 07:46:36;;;;;;;55.77;35.27;;;10.60;1.00;;;;;;4977019;28;20251;-54
2022/03/25 07:49:03;;;;;;;55.87;34.67;;;10.70;99.90;;;;;;4975045;28;20203;-53
2022/03/25 07:51:30;;;;;;;54.63;34.07;;;11.00;99.90;;;;;;4971869;28;20261;-50
2022/03/25 07:53:57;;;;;;;56.33;33.83;;;11.00;99.90;;;;;;4973252;28;20301;-51
2022/03/25 07:56:24;;;;;;;54.67;34.50;;;11.10;93.30;;;;;;4975171;28;20332;-50
2022/03/25 07:58:51;;;;;;;53.87;33.77;;;11.00;1.00;;;;;;4975128;28;20308;-50
2022/03/25 08:01:17;;;;;;;56.23;33.60;;;11.10;99.90;;;;;;4974996;28;20206;-50
2022/03/25 08:03:44;;;;;;;56.10;33.40;;;11.60;1.00;;;;;;4970721;28;20265;-52
2022/03/25 08:06:14;;;;;;;52.03;32.93;;;11.70;1.00;;;;;;4972265;28;20348;-51
2022/03/25 08:08:41;;;;;;;51.90;32.33;;;11.40;1.00;;;;;;4976799;28;20678;-51
2022/03/25 08:11:08;;;;;;;54.30;34.13;;;11.60;1.00;;;;;;4973952;28;20200;-50
2022/03/25 08:13:35;;;;;;;53.93;33.67;;;12.00;1.00;;;;;;4977976;28;20209;-50
2022/03/25 08:16:02;;;;;;;58.13;34.40;;;12.00;1.00;;;;;;4975080;28;20302;-49
2022/03/25 08:18:29;;;;;;;56.00;35.73;;;12.00;1.00;;;;;;4975566;28;20211;-52
2022/03/25 08:20:57;;;;;;;53.63;34.97;;;12.20;1.00;;;;;;4977841;28;20441;-52
2022/03/25 08:29:02;;;;;;;54.97;36.00;;;13.40;99.90;;;;;;4986714;28;20212;-49
2022/03/25 08:31:44;;;;;;;49.07;32.57;;;13.70;99.90;;;;;;4976422;28;20261;-51
2022/03/25 08:34:14;;;;;;;50.23;34.67;;;13.90;1.00;;;;;;4975628;28;20321;-50
2022/03/25 08:36:46;;;;;;;52.40;35.40;;;13.80;99.90;;;;;;4977868;28;20215;-50
2022/03/25 08:39:13;;;;;;;58.47;35.07;;;14.40;1.00;;;;;;4978988;28;20218;-50
2022/03/25 08:41:40;;;;;;;51.73;32.37;;;14.70;1.00;;;;;;4977299;28;20211;-52
2022/03/25 08:44:09;;;;;;;47.33;31.93;;;14.70;1.00;;;;;;4977342;28;20213;-51
2022/03/25 08:46:35;;;;;;;49.67;33.17;;;15.00;1.00;;;;;;4980449;28;20645;-50
2022/03/25 08:49:10;;;;;;;48.90;32.90;;;14.90;1.00;;;;;;4975417;28;20225;-50
2022/03/25 08:51:37;;;;;;;54.67;33.90;;;14.90;1.00;;;;;;4976983;28;20205;-51
2022/03/25 08:54:03;;;;;;;46.87;31.77;;;14.40;1.00;;;;;;4975834;28;20673;-52
2022/03/25 08:56:30;;;;;;;46.87;32.77;;;14.10;1.00;;;;;;4977628;28;20279;-51
2022/03/25 08:58:58;;;;;;;48.87;33.80;;;13.80;1.00;;;;;;4977324;28;20208;-52
2022/03/25 09:01:25;;;;;;;50.67;34.17;;;13.80;1.00;;;;;;4977464;28;20569;-50
2022/03/25 09:03:53;;;;;;;49.50;34.40;;;14.20;1.00;;;;;;4974576;28;20738;-52
2022/03/25 09:06:20;;;;;;;53.20;35.00;;;14.80;1.00;;;;;;4972062;28;20664;-51
2022/03/25 09:08:47;;;;;;;50.27;34.63;;;15.20;1.00;;;;;;4976815;28;20613;-52
2022/03/25 09:11:14;;;;;;;50.53;33.40;;;15.30;1.00;;;;;;4976594;28;20244;-52
2022/03/25 09:13:41;;;;;;;49.57;35.03;;;14.90;1.00;;;;;;4978419;28;20211;-52
2022/03/25 09:16:09;;;;;;;52.70;35.00;;;15.20;1.00;;;;;;4977896;28;20209;-53
2022/03/25 09:18:35;;;;;;;52.17;34.60;;;14.90;1.00;;;;;;4974596;28;21306;-52
2022/03/25 09:21:02;;;;;;;45.83;32.07;;;15.40;1.00;;;;;;4978066;28;20278;-51
2022/03/25 09:23:29;;;;;;;49.63;34.60;;;15.60;1.00;;;;;;4977865;28;20649;-50
2022/03/25 09:25:57;;;;;;;52.57;33.57;;;16.00;99.90;;;;;;4977692;28;20209;-51
2022/03/25 09:28:24;;;;;;;48.67;33.57;;;16.20;99.90;;;;;;4974898;28;20248;-51
2022/03/25 09:30:51;;;;;;;49.30;32.90;;;16.60;99.90;;;;;;4974426;28;20657;-51
2022/03/25 09:33:18;;;;;;;46.80;32.17;;;15.90;99.90;;;;;;4969427;28;20304;-51
2022/03/25 09:35:46;;;;;;;49.60;31.97;;;15.80;99.90;;;;;;4969088;28;20201;-51
2022/03/25 09:38:13;;;;;;;47.53;34.17;;;15.40;99.90;;;;;;4968870;28;20962;-52
2022/03/25 09:40:41;;;;;;;50.23;32.17;;;15.60;99.90;;;;;;4968124;28;20302;-53
2022/03/25 09:43:08;;;;;;;49.43;32.63;;;15.70;99.90;;;;;;4969327;28;20623;-51
2022/03/25 09:45:36;;;;;;;46.40;32.43;;;15.70;99.90;;;;;;4970569;28;20208;-51
2022/03/25 09:48:05;;;;;;;44.83;33.27;;;16.00;99.90;;;;;;4971688;28;20214;-50
2022/03/25 09:50:36;;;;;;;50.17;34.33;;;16.00;99.90;;;;;;4971833;28;20201;-52
2022/03/25 09:53:05;;;;;;;47.77;32.97;;;15.70;99.90;;;;;;4972143;28;20207;-52
2022/03/25 09:55:41;;;;;;;50.63;33.53;;;15.90;99.90;;;;;;4969344;28;20662;-51
2022/03/25 09:58:12;;;;;;;49.73;33.60;;;16.00;99.90;;;;;;4971390;28;20252;-51
2022/03/25 10:00:39;;;;;;;46.33;32.00;;;16.20;99.90;;;;;;4972654;28;20197;-50
2022/03/25 10:03:06;;;;;;;48.53;32.70;;;16.80;99.90;;;;;;4971499;28;20311;-52
2022/03/25 10:05:54;;;;;;;52.73;33.20;;;17.00;99.90;;;;;;4975006;28;20267;-53
2022/03/25 10:08:33;;;;;;;52.33;33.50;;;16.60;99.90;;;;;;4973943;28;20233;-52
2022/03/25 10:11:22;;;;;;;47.83;33.67;;;16.20;99.90;;;;;;4972235;28;20299;-54
2022/03/25 10:14:09;;;;;;;48.97;32.90;;;16.50;99.90;;;;;;4976483;28;20670;-53
2022/03/25 10:16:36;;;;;;;49.60;33.17;;;17.00;77.00;;;;;;4976442;28;20241;-51
2022/03/25 10:19:03;;;;;;;51.97;35.07;;;16.90;99.90;;;;;;4970416;28;20667;-51
2022/03/25 10:21:53;;;;;;;46.43;32.63;;;16.90;99.90;;;;;;4973635;28;20288;-51
2022/03/25 10:24:43;;;;;;;46.80;31.90;;;17.20;23.60;;;;;;4971077;28;20199;-52
2022/03/25 10:27:17;;;;;;;46.87;33.27;;;16.80;41.50;;;;;;4972748;28;20618;-57
2022/03/25 10:29:46;;;;;;;46.87;32.20;;;17.00;32.70;;;;;;4975611;28;20213;-53
2022/03/25 10:32:15;;;;;;;42.40;29.37;;;17.10;26.50;;;;;;4972484;28;20893;-57
2022/03/25 10:34:43;;;;;;;48.07;32.73;;;16.80;93.60;;;;;;4970831;28;20285;-54
2022/03/25 10:37:13;;;;;;;44.83;31.00;;;16.60;34.10;;;;;;4973520;28;20673;-52
2022/03/25 10:39:51;;;;;;;43.40;29.77;;;16.60;95.90;;;;;;4968598;28;20293;-52
2022/03/25 10:42:18;;;;;;;46.17;31.53;;;16.60;36.10;;;;;;4974042;28;20209;-53
2022/03/25 10:44:45;;;;;;;41.57;30.03;;;17.10;28.20;;;;;;4970363;28;20214;-53
2022/03/25 10:47:15;;;;;;;43.17;29.27;;;17.30;1.00;;;;;;4973973;28;20237;-54
2022/03/25 10:49:46;;;;;;;47.77;32.10;;;17.50;1.00;;;;;;4970118;28;20692;-51
2022/03/25 10:52:23;;;;;;;45.10;31.80;;;17.40;4.40;;;;;;4978206;28;20602;-51
2022/03/25 10:55:18;;;;;;;44.63;30.50;;;17.40;1.00;;;;;;4979474;28;20206;-53
2022/03/25 10:57:52;;;;;;;49.33;33.53;;;17.50;1.00;;;;;;4975552;28;21112;-53
2022/03/25 11:00:20;;;;;;;43.30;29.80;;;17.20;1.00;;;;;;4974157;28;20230;-53
2022/03/25 11:02:46;;;;;;;41.80;29.20;;;17.50;1.00;;;;;;4973254;28;20313;-52
2022/03/25 11:05:14;;;;;;;40.43;27.67;;;17.30;1.00;;;;;;4974160;28;20457;-51
2022/03/25 11:07:43;;;;;;;42.47;26.77;;;17.40;1.00;;;;;;4977613;28;20230;-52
2022/03/25 11:10:15;;;;;;;38.87;25.60;;;17.70;1.00;;;;;;4977304;28;20210;-53
2022/03/25 11:12:46;;;;;;;36.53;24.70;;;17.50;1.00;;;;;;4972244;28;20620;-52
2022/03/25 11:15:15;;;;;;;40.33;26.63;;;17.30;1.00;;;;;;4975227;28;20331;-51
2022/03/25 11:17:43;;;;;;;38.10;26.40;;;17.00;1.00;;;;;;4974134;28;20254;-52
2022/03/25 11:20:11;;;;;;;40.70;27.03;;;17.60;1.00;;;;;;4977309;28;20632;-52
2022/03/25 11:22:48;;;;;;;35.40;23.77;;;18.10;1.00;;;;;;4974668;28;20574;-52
2022/03/25 11:25:18;;;;;;;38.50;24.20;;;18.40;1.00;;;;;;4978608;28;20288;-51
2022/03/25 11:27:53;;;;;;;36.43;25.27;;;18.60;1.00;;;;;;4974724;28;20333;-53
2022/03/25 11:30:20;;;;;;;34.80;25.20;;;18.90;1.00;;;;;;4977769;28;20704;-52
2022/03/25 11:33:03;;;;;;;32.83;23.57;;;19.00;1.00;;;;;;4975727;28;20265;-54
2022/03/25 11:35:38;;;;;;;33.80;24.43;;;18.60;1.00;;;;;;4974230;28;20280;-53
2022/03/25 11:38:11;;;;;;;35.23;23.67;;;18.60;1.00;;;;;;4979001;28;20279;-53
2022/03/25 11:40:44;;;;;;;32.10;23.77;;;18.80;1.00;;;;;;4976153;28;20233;-52
2022/03/25 11:43:23;;;;;;;38.53;23.23;;;18.50;1.00;;;;;;4976038;28;20252;-52
2022/03/25 11:46:11;;;;;;;32.30;22.27;;;18.60;1.00;;;;;;4980455;28;20574;-51
2022/03/25 11:48:39;;;;;;;32.30;21.13;;;18.50;1.00;;;;;;4977463;28;20515;-52
2022/03/25 11:51:26;;;;;;;29.37;20.73;;;19.10;1.00;;;;;;4976484;28;20245;-52
2022/03/25 11:53:53;;;;;;;31.40;19.37;;;18.80;1.00;;;;;;4980819;28;20233;-52
2022/03/25 11:56:20;;;;;;;33.30;22.70;;;19.70;1.00;;;;;;4977599;28;20710;-54
2022/03/25 11:58:57;;;;;;;39.80;25.80;;;19.70;1.00;;;;;;4972472;28;20218;-53
2022/03/25 12:01:24;;;;;;;33.27;23.77;;;19.40;1.00;;;;;;4972932;28;20201;-52
2022/03/25 12:03:56;;;;;;;32.87;22.57;;;19.50;1.00;;;;;;4975566;28;20210;-51
2022/03/25 12:06:50;;;;;;;34.83;24.10;;;19.70;1.00;;;;;;4977304;28;20311;-52
2022/03/25 12:09:20;;;;;;;34.17;21.80;;;19.40;1.00;;;;;;4977857;28;20210;-53
2022/03/25 12:11:51;;;;;;;33.30;21.87;;;19.60;1.00;;;;;;4976629;28;20599;-53
2022/03/25 12:14:31;;;;;;;28.13;20.37;;;19.80;1.00;;;;;;4977840;28;20302;-53
2022/03/25 12:17:09;;;;;;;28.37;21.50;;;19.80;1.00;;;;;;4978265;28;20201;-53
2022/03/25 12:19:39;;;;;;;34.00;22.93;;;19.70;1.00;;;;;;4975246;28;20336;-53
2022/03/25 12:22:21;;;;;;;34.40;25.60;;;19.60;1.00;;;;;;4973166;28;20211;-51
2022/03/25 12:24:53;;;;;;;32.80;24.53;;;19.80;1.00;;;;;;4978284;28;20583;-52
2022/03/25 12:27:21;;;;;;;36.67;24.07;;;20.20;1.00;;;;;;4977347;28;20268;-52
2022/03/25 12:29:53;;;;;;;34.17;21.77;;;20.80;1.00;;;;;;4971921;28;20210;-53
2022/03/25 12:32:25;;;;;;;37.30;22.37;;;20.60;1.00;;;;;;4974158;28;20315;-54
2022/03/25 12:35:04;;;;;;;32.40;23.20;;;20.70;1.00;;;;;;4978983;28;20341;-52
2022/03/25 12:37:55;;;;;;;33.63;23.77;;;20.40;1.00;;;;;;4976998;28;20689;-50
2022/03/25 12:40:25;;;;;;;36.53;24.37;;;20.40;1.00;;;;;;4974908;28;20289;-50
2022/03/25 12:43:05;;;;;;;36.83;24.17;;;19.80;1.00;;;;;;4974516;28;20256;-52
2022/03/25 12:45:49;;;;;;;35.50;23.93;;;19.80;1.00;;;;;;4979262;28;20721;-52
2022/03/25 12:48:23;;;;;;;34.07;24.70;;;20.10;1.00;;;;;;4972876;28;20649;-52
2022/03/25 12:50:57;;;;;;;32.73;23.57;;;19.90;1.00;;;;;;4975779;28;20217;-52
2022/03/25 12:53:26;;;;;;;35.10;23.13;;;20.40;1.00;;;;;;4977691;28;20213;-52